Jack Mc Namara Field Airport Crescent City US
ICAO: KCEC
IATA: CEC
Category: Medium
Scheduled Services: Yes

Elevation: 61 ft
TransAlt. 18000 ft.

Airport Communications:
ASOS:119.925
SEATTLE CNTR:124.85
CTAF:122.8
OAKLAND RDO:122.3
UNICOM:122.8

KCEC Zoom In..

Runways:

(A) RW 11 length 5000 ft width 150 ft
ILS 108.70 / hdg 117

(B) RW 17 length 5001 ft width 150 ft
---- / hdg 177

(C) RW 29 length 5000 ft width 150 ft
---- / hdg 297

(D) RW 35 length 5001 ft width 150 ft
---- / hdg 357

Location; KCEC
Day. 21 / Time. 23.34 Zulu
* Altimeter: 30.07
* Temperature: 11° c. 51.8°f.
* Wind from: 180° Speed 19 kn with Gusts up to 25 kn.
Dewpoint: 08° c.
Visibility: 1 m.
Clouds: Broken 800 ft.
Clouds: Overcast 2000 ft.
Conditions: Rain.Conditions: Mist.

KCEC 212334Z AUTO 18019G25KT 1 3/4SM RA BR BKN008 OVC020 11/08 A3007 RMK AO2 PK WND 16031/2259 P0003 T01060083


Wind From 180°
Speed 19 kn.

jpsM music video
CHECK IT OUT

jpsM - It Moves..

 
jpsmedia.com for Web Design  worldairports.se 2018   terms of use